Time;durP1;ratioP1;P1;durP2;ratioP2;P2;SDS_P1;SDS_P2;PMS_P1;PMS_P2;Temp;Humidity;BMP_temperature;BMP_pressure;BME280_temperature;BME280_humidity;BME280_pressure;Samples;Min_cycle;Max_cycle;Signal;HPM_P1;HPM_P2
2022/10/16 00:00:52;;;;;;;5.85;3.05;;;;;;;13.39;80.26;100941.50;4881182;29;20032;-94
2022/10/16 00:03:17;;;;;;;4.03;2.88;;;;;;;13.40;80.15;100947.66;4881537;29;20036;-94
2022/10/16 00:05:44;;;;;;;3.97;2.75;;;;;;;13.35;79.89;100939.94;4881039;29;20036;-95
2022/10/16 00:08:12;;;;;;;6.95;3.25;;;;;;;13.35;80.29;100936.41;4880865;29;20029;-94
2022/10/16 00:10:37;;;;;;;6.10;3.50;;;;;;;13.35;80.28;100926.66;4897854;29;20028;-94
2022/10/16 00:13:04;;;;;;;3.17;2.63;;;;;;;13.40;79.96;100921.13;4881155;29;20052;-94
2022/10/16 00:15:30;;;;;;;4.80;3.20;;;;;;;13.36;80.05;100917.75;4881501;29;20029;-94
2022/10/16 00:17:55;;;;;;;3.75;3.13;;;;;;;13.32;79.99;100924.13;4897803;29;20053;-94
2022/10/16 00:20:21;;;;;;;7.40;2.88;;;;;;;13.31;80.41;100914.47;4898109;29;20052;-95
2022/10/16 00:22:46;;;;;;;6.90;2.70;;;;;;;13.34;79.80;100932.06;4880943;29;20028;-94
2022/10/16 00:25:11;;;;;;;3.80;2.78;;;;;;;13.32;80.18;100933.91;4881024;29;20048;-94
2022/10/16 00:27:37;;;;;;;5.75;3.08;;;;;;;13.32;80.49;100939.22;4880825;29;20088;-94
2022/10/16 00:30:03;;;;;;;4.95;3.28;;;;;;;13.32;80.34;100940.06;4880747;29;20560;-94
2022/10/16 00:32:28;;;;;;;3.08;2.40;;;;;;;13.26;80.39;100946.56;4880907;29;20524;-94
2022/10/16 00:34:56;;;;;;;5.57;2.67;;;;;;;13.24;80.40;100934.28;4897662;29;20036;-93
2022/10/16 00:37:22;;;;;;;6.03;2.90;;;;;;;13.16;80.65;100937.31;4897566;29;20039;-95
2022/10/16 00:39:47;;;;;;;6.80;2.92;;;;;;;13.15;80.71;100942.66;4880853;29;20056;-94
2022/10/16 00:42:18;;;;;;;7.32;3.15;;;;;;;13.02;80.67;100923.84;4880823;29;20084;-95
2022/10/16 00:44:56;;;;;;;4.95;2.67;;;;;;;13.06;81.10;100944.00;4881593;29;20047;-93
2022/10/16 00:47:36;;;;;;;5.00;2.80;;;;;;;13.02;80.63;100948.59;4900911;29;20032;-94
2022/10/16 00:50:09;;;;;;;6.03;2.70;;;;;;;12.99;81.26;100942.56;4884043;29;20480;-94
2022/10/16 00:52:36;;;;;;;7.82;3.00;;;;;;;12.88;81.58;100929.81;4884103;29;20060;-94
2022/10/16 00:55:04;;;;;;;5.40;3.17;;;;;;;12.92;81.66;100947.31;4900756;29;20025;-93
2022/10/16 00:57:29;;;;;;;6.65;2.88;;;;;;;12.92;81.52;100936.72;4883987;29;20028;-94
2022/10/16 00:59:55;;;;;;;5.35;3.00;;;;;;;12.91;81.48;100944.72;4884465;29;20084;-94
2022/10/16 01:02:21;;;;;;;5.50;3.28;;;;;;;12.87;81.40;100933.41;4896166;29;20026;-94
2022/10/16 01:04:50;;;;;;;6.80;3.00;;;;;;;12.92;81.95;100934.06;4902512;29;20080;-94
2022/10/16 01:07:23;;;;;;;4.15;2.80;;;;;;;12.95;81.94;100947.16;4919476;29;20025;-94
2022/10/16 01:10:02;;;;;;;6.80;2.95;;;;;;;12.94;81.79;100932.16;4919515;29;20032;-93
2022/10/16 01:12:38;;;;;;;7.07;3.22;;;;;;;12.87;82.10;100929.88;4900908;29;20392;-94
2022/10/16 01:15:12;;;;;;;5.80;2.55;;;;;;;12.92;81.96;100936.72;4900467;29;20029;-94
2022/10/16 01:17:56;;;;;;;6.70;2.30;;;;;;;12.93;81.34;100937.56;4883531;29;20464;-95
2022/10/16 01:20:47;;;;;;;5.70;2.80;;;;;;;12.89;81.38;100928.03;4883460;29;20397;-94
2022/10/16 01:23:25;;;;;;;6.45;2.80;;;;;;;12.89;81.88;100941.28;4883600;29;20025;-95
2022/10/16 01:25:56;;;;;;;3.15;2.50;;;;;;;12.85;82.34;100942.38;4883506;29;20480;-94
2022/10/16 01:28:29;;;;;;;4.30;2.78;;;;;;;12.84;82.07;100951.28;4883299;29;20071;-94
2022/10/16 01:30:59;;;;;;;4.90;2.58;;;;;;;12.76;82.41;100941.00;4883240;29;20139;-94
2022/10/16 01:33:34;;;;;;;3.35;2.55;;;;;;;12.80;82.52;100937.28;4883344;29;20123;-93
2022/10/16 01:36:09;;;;;;;4.85;3.00;;;;;;;12.85;82.64;100950.34;4900163;29;20479;-94
2022/10/16 01:38:37;;;;;;;5.15;2.72;;;;;;;12.86;82.78;100931.69;4883328;29;20013;-94
2022/10/16 01:41:16;;;;;;;4.10;2.67;;;;;;;12.93;82.09;100940.22;4883324;29;20455;-95
2022/10/16 01:43:48;;;;;;;5.03;2.83;;;;;;;12.97;81.96;100939.13;4883115;29;20481;-95
2022/10/16 01:46:17;;;;;;;4.85;2.88;;;;;;;13.07;82.23;100947.50;4883098;29;20059;-94
2022/10/16 01:48:42;;;;;;;4.93;2.70;;;;;;;13.03;82.13;100934.38;4883020;29;20444;-94
2022/10/16 01:51:20;;;;;;;3.22;2.50;;;;;;;13.25;81.41;100942.19;4900201;29;20032;-94
2022/10/16 01:53:51;;;;;;;5.47;2.67;;;;;;;13.17;81.51;100931.06;4892256;29;20111;-94
2022/10/16 01:56:18;;;;;;;6.90;3.28;;;;;;;13.12;81.39;100926.91;4900588;29;20372;-95
2022/10/16 01:58:55;;;;;;;2.72;2.53;;;;;;;13.18;81.66;100926.59;4901612;29;20032;-94
2022/10/16 02:01:22;;;;;;;4.95;3.25;;;;;;;13.17;81.68;100946.13;4898721;29;20079;-94
2022/10/16 02:03:52;;;;;;;9.13;2.92;;;;;;;13.12;81.49;100938.38;4894136;29;20115;-94
2022/10/16 02:06:17;;;;;;;4.00;2.75;;;;;;;13.09;81.43;100938.53;4918329;29;20028;-94
2022/10/16 02:08:43;;;;;;;3.10;2.35;;;;;;;13.08;81.77;100936.81;4918275;29;20379;-95
2022/10/16 02:11:10;;;;;;;3.65;2.42;;;;;;;13.10;81.33;100947.34;4901489;29;20038;-94
2022/10/16 02:13:46;;;;;;;3.90;2.10;;;;;;;13.06;81.57;100954.63;4901210;29;20036;-94
2022/10/16 02:16:13;;;;;;;2.30;1.90;;;;;;;13.09;81.92;100957.09;4901230;29;20072;-94
2022/10/16 02:18:39;;;;;;;5.25;2.00;;;;;;;13.08;81.70;100952.75;4901137;29;20110;-94
2022/10/16 02:21:23;;;;;;;3.15;2.20;;;;;;;13.03;81.57;100941.47;4918111;29;20028;-95
2022/10/16 02:24:00;;;;;;;6.07;3.00;;;;;;;13.09;81.46;100954.44;4918402;29;20036;-94
2022/10/16 02:26:41;;;;;;;2.83;2.10;;;;;;;12.95;81.72;100935.69;4901054;29;20047;-94
2022/10/16 02:29:11;;;;;;;2.92;2.03;;;;;;;12.97;81.89;100939.13;4917814;29;20063;-94
2022/10/16 02:31:43;;;;;;;2.65;2.10;;;;;;;12.88;81.89;100923.66;4901208;29;20114;-95
2022/10/16 02:34:12;;;;;;;2.53;2.33;;;;;;;13.01;81.99;100946.03;4901077;29;20436;-95
2022/10/16 02:36:39;;;;;;;3.65;2.40;;;;;;;12.98;81.89;100935.53;4901114;29;20388;-94
2022/10/16 02:39:05;;;;;;;3.85;2.20;;;;;;;12.90;81.62;100929.75;4900811;29;20024;-94
2022/10/16 02:41:30;;;;;;;3.10;2.80;;;;;;;12.87;81.79;100943.16;4893067;29;20032;-94
2022/10/16 02:43:56;;;;;;;3.83;2.63;;;;;;;12.93;81.46;100958.78;4918297;29;20028;-94
2022/10/16 02:46:21;;;;;;;2.95;2.33;;;;;;;12.89;82.07;100950.13;4917771;29;20387;-95
2022/10/16 02:48:47;;;;;;;4.28;2.63;;;;;;;12.83;82.22;100942.47;4900590;29;20126;-94
2022/10/16 02:51:12;;;;;;;3.92;2.63;;;;;;;12.84;81.65;100938.00;4900765;29;20020;-94
2022/10/16 02:53:37;;;;;;;3.22;2.60;;;;;;;12.82;82.09;100937.19;4900601;29;20024;-93
2022/10/16 02:56:03;;;;;;;3.42;3.13;;;;;;;12.76;82.26;100933.91;4917598;29;20024;-94
2022/10/16 02:58:28;;;;;;;3.03;2.72;;;;;;;12.80;82.09;100926.66;4900898;29;20407;-94
2022/10/16 03:00:55;;;;;;;3.97;2.67;;;;;;;12.88;82.29;100951.06;4900498;29;20030;-95
2022/10/16 03:03:21;;;;;;;4.20;2.70;;;;;;;12.80;82.08;100936.44;4900422;29;20028;-95
2022/10/16 03:05:46;;;;;;;4.78;2.88;;;;;;;12.80;82.18;100944.38;4900408;29;20024;-93
2022/10/16 03:08:12;;;;;;;4.28;2.60;;;;;;;12.75;82.31;100945.47;4917113;29;20043;-95
2022/10/16 03:10:38;;;;;;;2.88;2.53;;;;;;;12.68;82.44;100943.16;4900752;29;20028;-94
2022/10/16 03:13:03;;;;;;;5.68;2.63;;;;;;;12.68;82.57;100946.72;4900309;29;20095;-94
2022/10/16 03:15:28;;;;;;;2.97;2.60;;;;;;;12.76;82.50;100964.88;4900186;29;20055;-95
2022/10/16 03:17:54;;;;;;;3.15;2.80;;;;;;;12.66;82.67;100937.09;4900264;29;20024;-95
2022/10/16 03:20:19;;;;;;;4.80;3.00;;;;;;;12.70;82.82;100952.78;4900125;29;20032;-94
2022/10/16 03:22:45;;;;;;;4.78;2.47;;;;;;;12.70;82.50;100962.53;4900147;29;20039;-94
2022/10/16 03:25:10;;;;;;;4.53;2.65;;;;;;;12.73;82.32;100968.56;4917354;29;20039;-94
2022/10/16 03:27:35;;;;;;;3.58;2.70;;;;;;;12.76;82.70;100972.84;4916838;29;20062;-94
2022/10/16 03:30:01;;;;;;;3.97;2.45;;;;;;;12.70;82.56;100967.84;4899951;29;20044;-94
2022/10/16 03:32:28;;;;;;;4.85;2.97;;;;;;;12.69;82.67;100980.25;4899936;29;20036;-94
2022/10/16 03:34:54;;;;;;;3.03;2.72;;;;;;;12.71;82.67;100986.34;4917004;29;20658;-95
2022/10/16 03:37:19;;;;;;;6.50;2.80;;;;;;;12.69;82.42;100988.22;4917245;29;20124;-95
2022/10/16 03:39:45;;;;;;;6.47;2.92;;;;;;;12.70;82.43;100986.41;4900046;29;20485;-94
2022/10/16 03:42:10;;;;;;;5.72;2.70;;;;;;;12.71;83.05;100983.69;4899907;29;20024;-94
2022/10/16 03:44:35;;;;;;;6.50;2.88;;;;;;;12.77;82.74;100985.19;4900008;29;20026;-95
2022/10/16 03:47:01;;;;;;;2.75;2.55;;;;;;;12.76;82.63;100991.41;4916924;29;20024;-94
2022/10/16 03:49:26;;;;;;;4.35;2.63;;;;;;;12.68;82.51;100981.19;4916844;29;20043;-94
2022/10/16 03:51:51;;;;;;;3.42;2.45;;;;;;;12.72;82.62;100989.84;4916878;29;20030;-94
2022/10/16 03:54:17;;;;;;;2.60;2.20;;;;;;;12.75;82.58;101003.81;4916891;29;20032;-94
2022/10/16 03:56:42;;;;;;;2.33;2.13;;;;;;;12.72;83.10;100997.78;4899891;29;20067;-93
2022/10/16 03:59:08;;;;;;;2.78;2.55;;;;;;;12.70;82.67;101000.53;4916806;29;20480;-94
2022/10/16 04:01:33;;;;;;;5.28;3.00;;;;;;;12.70;83.21;100997.88;4899637;29;20024;-95
2022/10/16 04:03:58;;;;;;;4.35;3.05;;;;;;;12.71;82.67;100991.63;4916715;29;20075;-95
2022/10/16 04:06:24;;;;;;;3.45;2.95;;;;;;;12.73;82.92;101000.41;4899778;29;20032;-93
2022/10/16 04:08:49;;;;;;;5.25;4.00;;;;;;;12.75;82.86;101006.47;4899674;29;20058;-94
2022/10/16 04:11:14;;;;;;;7.22;2.60;;;;;;;12.72;82.45;100992.50;4916457;29;20391;-94
2022/10/16 04:13:40;;;;;;;3.28;2.45;;;;;;;12.77;82.60;101006.41;4916759;29;20052;-94
2022/10/16 04:16:05;;;;;;;4.78;2.42;;;;;;;12.67;82.89;100994.50;4916704;29;20437;-94
2022/10/16 04:18:31;;;;;;;5.25;2.50;;;;;;;12.68;83.02;100997.09;4899569;29;20024;-94
2022/10/16 04:20:56;;;;;;;4.45;2.00;;;;;;;12.71;83.23;100996.94;4902693;29;20024;-93
2022/10/16 04:23:22;;;;;;;2.63;2.40;;;;;;;12.76;82.91;101016.16;4920483;29;20032;-94
2022/10/16 04:25:48;;;;;;;2.75;1.80;;;;;;;12.73;83.16;101007.50;4885160;29;20032;-94
2022/10/16 04:28:13;;;;;;;2.70;1.85;;;;;;;12.78;83.53;101008.16;4901323;29;20029;-94
2022/10/16 04:30:39;;;;;;;3.45;2.33;;;;;;;12.78;82.67;101016.09;4901139;29;20055;-94
2022/10/16 04:33:05;;;;;;;3.10;1.83;;;;;;;12.78;82.94;101008.16;4901191;29;20047;-94
2022/10/16 04:35:30;;;;;;;2.10;1.90;;;;;;;12.84;83.27;101009.66;4884288;29;20024;-94
2022/10/16 04:37:58;;;;;;;1.80;1.60;;;;;;;12.76;83.19;101002.03;4901181;29;20024;-93
2022/10/16 04:40:23;;;;;;;7.28;2.38;;;;;;;12.82;82.97;101022.09;4886262;29;20067;-93
2022/10/16 04:42:49;;;;;;;3.90;2.10;;;;;;;12.80;83.42;101024.84;4902971;29;20428;-95
2022/10/16 04:45:14;;;;;;;3.58;2.22;;;;;;;12.74;82.85;101012.72;4902963;29;20024;-94
2022/10/16 04:47:39;;;;;;;3.45;2.50;;;;;;;12.73;83.00;101018.97;4902832;29;20491;-95
2022/10/16 04:50:06;;;;;;;3.33;2.60;;;;;;;12.72;83.36;101025.19;4902865;29;20067;-94
2022/10/16 04:52:31;;;;;;;3.55;2.35;;;;;;;12.75;83.49;101033.00;4895697;29;20388;-94
2022/10/16 04:55:00;;;;;;;4.30;3.03;;;;;;;12.74;83.10;101026.00;4901112;29;20103;-95
2022/10/16 04:57:26;;;;;;;2.22;1.85;;;;;;;12.74;83.45;101030.44;4900942;29;20480;-94
2022/10/16 04:59:52;;;;;;;4.00;2.25;;;;;;;12.82;83.90;101045.97;4900874;29;20033;-94
2022/10/16 05:02:17;;;;;;;2.70;2.30;;;;;;;12.73;83.22;101026.94;4885530;29;20127;-94
2022/10/16 05:04:43;;;;;;;5.43;2.40;;;;;;;12.77;83.14;101048.84;4902569;29;20107;-95
2022/10/16 05:07:08;;;;;;;4.20;2.55;;;;;;;12.68;83.63;101041.31;4902676;29;20039;-94
2022/10/16 05:09:33;;;;;;;3.88;2.20;;;;;;;12.76;83.78;101052.44;4902656;29;20024;-94
2022/10/16 05:11:59;;;;;;;4.38;2.47;;;;;;;12.75;84.14;101062.19;4919454;29;20519;-94
2022/10/16 05:14:24;;;;;;;6.40;2.28;;;;;;;12.76;84.03;101055.94;4919571;29;20028;-94
2022/10/16 05:16:50;;;;;;;3.25;2.30;;;;;;;12.73;83.75;101058.75;4919408;29;20027;-94
2022/10/16 05:19:15;;;;;;;3.65;2.47;;;;;;;12.72;83.89;101072.94;4919626;29;20024;-94
2022/10/16 05:21:41;;;;;;;4.10;2.65;;;;;;;12.71;83.80;101065.91;4902240;29;20079;-93
2022/10/16 05:24:06;;;;;;;4.10;2.35;;;;;;;12.70;84.19;101064.19;4919268;29;20443;-94
2022/10/16 05:26:31;;;;;;;3.75;2.08;;;;;;;12.69;84.06;101066.94;4902140;29;20111;-94
2022/10/16 05:28:57;;;;;;;7.15;2.10;;;;;;;12.65;84.17;101054.72;4902047;29;20048;-94
2022/10/16 05:31:22;;;;;;;6.50;2.60;;;;;;;12.66;84.51;101077.66;4893200;29;20393;-95
2022/10/16 05:33:48;;;;;;;4.40;2.75;;;;;;;12.62;84.25;101068.97;4919141;29;20504;-94
2022/10/16 05:36:13;;;;;;;5.35;2.90;;;;;;;12.62;84.64;101070.78;4902119;29;20024;-95
2022/10/16 05:38:39;;;;;;;5.60;3.08;;;;;;;12.62;84.34;101082.25;4902039;29;20024;-94
2022/10/16 05:41:05;;;;;;;6.25;3.17;;;;;;;12.58;84.33;101074.50;4911870;29;20033;-94
2022/10/16 05:43:31;;;;;;;6.32;3.50;;;;;;;12.65;84.37;101092.72;4918545;29;20060;-95
2022/10/16 05:45:58;;;;;;;9.00;4.00;;;;;;;12.52;84.71;101083.59;4902036;29;20032;-94
2022/10/16 05:48:24;;;;;;;7.43;4.38;;;;;;;12.63;85.56;101110.47;4901650;29;20119;-95
2022/10/16 05:50:58;;;;;;;4.30;2.90;;;;;;;12.63;85.00;101115.78;4901826;29;20032;-94
2022/10/16 05:53:25;;;;;;;3.97;2.67;;;;;;;12.59;84.57;101113.34;4918671;29;20032;-94
2022/10/16 05:55:54;;;;;;;3.03;2.72;;;;;;;12.56;85.00;101124.09;4901678;29;20365;-95
2022/10/16 05:58:19;;;;;;;5.90;3.55;;;;;;;12.52;85.06;101120.72;4918643;29;20020;-95
2022/10/16 06:00:52;;;;;;;8.05;3.10;;;;;;;12.51;84.75;101133.13;4918656;29;20035;-93
2022/10/16 06:03:18;;;;;;;6.30;3.00;;;;;;;12.48;84.72;101135.88;4899677;29;20029;-93
2022/10/16 06:05:43;;;;;;;7.95;3.22;;;;;;;12.48;85.45;101135.88;4899400;29;20040;-94
2022/10/16 06:08:08;;;;;;;5.97;3.22;;;;;;;12.49;85.16;101139.41;4899379;29;20043;-94
2022/10/16 06:10:34;;;;;;;4.50;3.10;;;;;;;12.48;85.31;101149.16;4899512;29;20119;-95
2022/10/16 06:12:59;;;;;;;3.72;2.80;;;;;;;12.48;85.38;101149.16;4883044;29;20474;-95
2022/10/16 06:15:24;;;;;;;9.10;3.05;;;;;;;12.43;84.95;101153.78;4882488;29;20051;-94
2022/10/16 06:17:49;;;;;;;4.85;2.92;;;;;;;12.41;85.26;101155.66;4882955;29;20503;-94
2022/10/16 06:20:15;;;;;;;7.35;2.75;;;;;;;12.36;85.60;101148.84;4882558;29;20072;-94
2022/10/16 06:22:40;;;;;;;4.18;2.50;;;;;;;12.34;85.14;101161.28;4884148;29;20079;-94
2022/10/16 06:25:06;;;;;;;3.75;2.38;;;;;;;12.36;85.26;101175.34;4904250;29;20063;-95
2022/10/16 06:27:31;;;;;;;4.05;2.58;;;;;;;12.31;85.59;101169.34;4886444;29;20021;-95
2022/10/16 06:29:57;;;;;;;7.07;2.75;;;;;;;12.27;85.15;101166.00;4888403;29;20048;-94
2022/10/16 06:32:22;;;;;;;5.88;2.80;;;;;;;12.30;85.27;101170.28;4905177;29;20088;-93
2022/10/16 06:34:48;;;;;;;6.55;3.28;;;;;;;12.27;85.17;101181.03;4900231;29;20070;-94
2022/10/16 06:37:13;;;;;;;4.93;2.72;;;;;;;12.31;85.67;101186.16;4899345;29;20012;-94
2022/10/16 06:39:38;;;;;;;6.03;3.25;;;;;;;12.28;85.55;101185.41;4916712;29;20028;-93
2022/10/16 06:42:04;;;;;;;6.50;3.25;;;;;;;12.28;85.72;101185.41;4897677;29;20380;-94
2022/10/16 06:44:29;;;;;;;5.20;3.08;;;;;;;12.35;86.10;101192.16;4931384;29;20039;-96
2022/10/16 06:46:54;;;;;;;5.75;2.85;;;;;;;12.35;85.47;101197.47;4932495;29;20028;-94
2022/10/16 06:49:22;;;;;;;6.35;2.95;;;;;;;12.39;85.75;101201.72;4932313;29;20036;-94
2022/10/16 06:51:48;;;;;;;6.72;3.10;;;;;;;12.45;85.67;101212.06;4912891;29;20020;-95
2022/10/16 06:54:14;;;;;;;6.05;2.67;;;;;;;12.48;85.32;101222.56;4919216;29;20175;-95
2022/10/16 06:56:40;;;;;;;4.97;3.20;;;;;;;12.48;85.72;101214.59;4919049;29;20039;-94
2022/10/16 06:59:05;;;;;;;7.57;3.25;;;;;;;12.58;85.76;101210.63;4919792;29;20031;-94
2022/10/16 07:01:31;;;;;;;6.00;2.85;;;;;;;12.67;85.75;101219.97;4891059;29;20024;-94
2022/10/16 07:03:57;;;;;;;7.03;3.60;;;;;;;12.72;85.95;101233.91;4881885;29;20388;-94
2022/10/16 07:06:24;;;;;;;5.90;3.05;;;;;;;12.70;85.69;101230.47;4882109;29;20020;-94
2022/10/16 07:08:49;;;;;;;5.03;2.63;;;;;;;12.76;85.78;101216.94;4899062;29;20123;-95
2022/10/16 07:11:17;;;;;;;3.65;2.53;;;;;;;12.80;85.40;101230.94;4882029;29;20127;-94
2022/10/16 07:13:45;;;;;;;3.25;2.40;;;;;;;12.92;85.53;101249.84;4898932;29;20036;-94
2022/10/16 07:16:13;;;;;;;6.50;2.63;;;;;;;12.95;85.66;101238.22;4881737;29;20036;-95
2022/10/16 07:18:40;;;;;;;5.80;2.72;;;;;;;13.00;85.06;101245.03;4894053;29;20024;-94
2022/10/16 07:21:12;;;;;;;4.38;2.38;;;;;;;13.09;85.01;101246.44;4900708;29;20495;-95
2022/10/16 07:23:37;;;;;;;4.38;2.42;;;;;;;13.16;84.86;101253.22;4900264;29;20024;-94
2022/10/16 07:26:04;;;;;;;3.83;2.63;;;;;;;13.19;84.95;101258.38;4917277;29;20032;-95
2022/10/16 07:28:30;;;;;;;4.18;2.60;;;;;;;13.31;84.64;101272.09;4900432;29;20039;-94
2022/10/16 07:30:55;;;;;;;5.97;2.60;;;;;;;13.31;84.47;101269.44;4900105;29;20044;-95
2022/10/16 07:33:21;;;;;;;4.22;2.85;;;;;;;13.37;83.86;101277.97;4904359;29;20031;-95
2022/10/16 07:35:48;;;;;;;4.03;2.70;;;;;;;13.44;84.02;101283.88;4900054;29;20024;-94
2022/10/16 07:38:14;;;;;;;3.83;2.40;;;;;;;13.53;83.95;101286.13;4900102;29;20021;-95
2022/10/16 07:40:39;;;;;;;2.90;2.33;;;;;;;13.58;83.69;101278.81;4900547;29;20036;-94
2022/10/16 07:43:05;;;;;;;4.43;2.50;;;;;;;13.70;83.33;101290.66;4900161;29;20027;-94
2022/10/16 07:45:30;;;;;;;4.28;2.20;;;;;;;13.77;82.96;101292.13;4900478;29;20495;-94
2022/10/16 07:47:55;;;;;;;7.82;2.10;;;;;;;13.92;82.86;101299.38;4899940;29;20500;-94
2022/10/16 07:50:21;;;;;;;2.20;1.67;;;;;;;14.04;82.45;101312.09;4900012;29;20024;-94
2022/10/16 07:52:46;;;;;;;7.18;2.15;;;;;;;14.21;81.62;101305.94;4917269;29;20096;-94
2022/10/16 07:55:12;;;;;;;2.00;1.60;;;;;;;14.72;79.99;101306.19;4918802;29;20028;-95
2022/10/16 07:57:37;;;;;;;3.05;1.85;;;;;;;15.43;77.62;101306.94;4903909;29;20540;-95
2022/10/16 08:00:03;;;;;;;6.03;1.80;;;;;;;16.04;75.17;101313.44;4903778;29;20039;-95
2022/10/16 08:02:28;;;;;;;4.45;2.00;;;;;;;16.62;73.06;101318.16;4903756;29;20067;-94
2022/10/16 08:04:53;;;;;;;3.00;1.90;;;;;;;17.19;70.86;101325.53;4920602;29;20024;-95
2022/10/16 08:07:18;;;;;;;2.75;1.55;;;;;;;17.28;69.47;101327.66;4920905;29;20032;-95
2022/10/16 08:09:44;;;;;;;2.88;1.50;;;;;;;17.40;68.49;101326.06;4920620;29;20091;-94
2022/10/16 08:12:10;;;;;;;3.05;1.42;;;;;;;17.80;68.05;101321.81;4903991;29;20055;-95
2022/10/16 08:14:36;;;;;;;3.28;1.63;;;;;;;18.14;66.46;101346.41;4903627;29;20119;-94
2022/10/16 08:17:02;;;;;;;2.13;1.45;;;;;;;18.26;65.99;101346.50;4903620;29;20044;-94
2022/10/16 08:19:27;;;;;;;3.90;1.63;;;;;;;18.29;64.33;101340.09;4903717;29;20067;-95
2022/10/16 08:21:52;;;;;;;2.05;1.38;;;;;;;18.69;63.83;101348.22;4903311;29;20055;-95
2022/10/16 08:24:18;;;;;;;2.00;1.40;;;;;;;18.89;63.02;101350.47;4903939;29;20570;-95
2022/10/16 08:26:43;;;;;;;5.90;1.80;;;;;;;19.46;60.89;101351.94;4903678;29;20032;-95
2022/10/16 08:29:08;;;;;;;4.13;1.60;;;;;;;19.86;58.83;101350.03;4920429;29;20520;-94
2022/10/16 08:31:34;;;;;;;3.40;1.30;;;;;;;20.06;58.50;101354.00;4903284;29;20033;-95
2022/10/16 08:34:00;;;;;;;5.53;1.70;;;;;;;20.28;58.03;101354.13;4920198;29;20063;-95
2022/10/16 08:36:25;;;;;;;4.47;1.40;;;;;;;20.62;56.36;101351.72;4904847;29;20122;-95
2022/10/16 08:38:51;;;;;;;2.30;1.40;;;;;;;21.56;54.78;101364.28;4903328;29;20071;-95
2022/10/16 08:41:28;;;;;;;3.17;1.48;;;;;;;22.10;54.44;101368.97;4903098;29;20035;-95
2022/10/16 08:44:40;;;;;;;3.38;1.45;;;;;;;23.42;53.66;101388.59;4920728;29;20533;-94
2022/10/16 08:47:19;;;;;;;;;;;;;;;23.52;52.35;101389.53;4862339;29;20451;-95
2022/10/16 08:49:56;;;;;;;4.40;1.70;;;;;;;23.26;49.97;101367.47;4896652;29;19962;-94
2022/10/16 08:52:30;;;;;;;3.60;1.88;;;;;;;23.46;48.75;101397.31;4920378;29;20031;-94
2022/10/16 08:54:56;;;;;;;3.35;1.40;;;;;;;23.61;48.06;101382.47;4903899;29;20492;-94
2022/10/16 08:57:26;;;;;;;2.05;1.48;;;;;;;23.80;47.01;101384.47;4904300;29;20499;-94
2022/10/16 08:59:51;;;;;;;4.95;1.48;;;;;;;23.78;46.08;101391.81;4904373;29;20103;-94
2022/10/16 09:02:28;;;;;;;3.28;1.50;;;;;;;24.40;45.16;101386.31;4903421;29;20436;-94
2022/10/16 09:04:59;;;;;;;2.90;1.38;;;;;;;24.26;45.77;101397.47;4904476;29;20074;-94
2022/10/16 09:08:14;;;;;;;3.22;1.58;;;;;;;25.42;45.39;101397.66;4919341;29;20029;-95
2022/10/16 09:11:00;;;;;;;5.75;1.40;;;;;;;25.88;42.22;101392.44;4890790;29;20044;-95
2022/10/16 09:13:52;;;;;;;4.43;1.20;;;;;;;25.44;44.84;101389.38;4903388;29;20032;-95
2022/10/16 09:16:24;;;;;;;5.00;1.55;;;;;;;25.42;41.90;101413.91;4902616;29;20048;-95
2022/10/16 09:19:13;;;;;;;4.35;1.90;;;;;;;26.04;43.84;101424.34;4920118;29;20117;-94
2022/10/16 09:21:43;;;;;;;2.92;1.50;;;;;;;26.71;40.10;101409.63;4903719;29;20032;-94
2022/10/16 09:24:14;;;;;;;6.03;1.35;;;;;;;26.48;40.24;101414.59;4902918;29;20028;-96
2022/10/16 09:26:40;;;;;;;5.60;1.60;;;;;;;26.64;39.18;101416.69;4902339;29;20087;-94
2022/10/16 09:29:05;;;;;;;4.68;1.40;;;;;;;27.17;38.76;101427.59;4902472;29;20520;-94
2022/10/16 09:31:31;;;;;;;3.45;1.55;;;;;;;28.33;36.59;101420.09;4919205;29;20433;-95
2022/10/16 09:34:05;;;;;;;5.10;1.50;;;;;;;28.97;35.92;101432.25;4902698;29;20039;-94
2022/10/16 09:36:40;;;;;;;5.13;1.50;;;;;;;28.89;35.33;101428.63;4902359;29;20028;-95
2022/10/16 09:39:08;;;;;;;9.82;1.63;;;;;;;27.97;38.18;101422.97;4902074;29;20024;-94
2022/10/16 09:41:40;;;;;;;5.32;1.27;;;;;;;27.72;38.56;101434.69;4902627;29;20028;-94
2022/10/16 09:44:19;;;;;;;6.07;1.40;;;;;;;27.33;38.63;101424.19;4919225;29;20388;-95
2022/10/16 09:46:44;;;;;;;6.15;1.30;;;;;;;27.27;38.07;101429.38;4918843;29;20432;-95
2022/10/16 09:49:25;;;;;;;5.25;1.40;;;;;;;25.64;41.30;101428.13;4902404;29;20084;-94
2022/10/16 09:52:02;;;;;;;3.53;1.17;;;;;;;25.77;38.96;101428.69;4901877;29;20084;-95
2022/10/16 09:54:28;;;;;;;6.05;1.60;;;;;;;24.69;41.74;101439.59;4918827;29;20400;-95
2022/10/16 09:57:04;;;;;;;7.53;1.60;;;;;;;23.79;45.71;101434.91;4901752;29;20031;-95
2022/10/16 09:59:31;;;;;;;8.65;1.60;;;;;;;24.38;43.42;101438.78;4901672;29;20396;-96
2022/10/16 10:02:03;;;;;;;6.38;1.77;;;;;;;23.73;44.25;101437.28;4918997;29;20095;-95
2022/10/16 10:04:39;;;;;;;3.30;1.27;;;;;;;23.62;46.24;101451.66;4901926;29;20118;-95
2022/10/16 10:07:04;;;;;;;8.60;1.90;;;;;;;22.35;46.88;101433.41;4901957;29;20039;-95
2022/10/16 10:09:39;;;;;;;5.90;1.67;;;;;;;24.29;45.22;101435.00;4918534;29;20020;-95
2022/10/16 10:12:17;;;;;;;6.38;1.83;;;;;;;25.43;40.26;101437.28;4902124;29;20472;-95
2022/10/16 10:14:46;;;;;;;3.78;1.45;;;;;;;25.68;40.09;101433.09;4901943;29;20432;-95
2022/10/16 10:17:18;;;;;;;7.43;1.90;;;;;;;26.13;39.79;101453.28;4900937;29;20417;-94
2022/10/16 10:19:46;;;;;;;10.00;2.42;;;;;;;26.05;39.69;101442.31;4901621;29;20024;-94
2022/10/16 10:22:25;;;;;;;5.10;1.58;;;;;;;24.62;41.89;101454.66;4901941;29;20087;-95
2022/10/16 10:25:23;;;;;;;7.93;1.95;;;;;;;24.07;45.27;101454.97;4902042;29;20036;-94
2022/10/16 10:28:07;;;;;;;8.45;1.88;;;;;;;23.30;44.62;101460.66;4901399;29;20028;-95
2022/10/16 10:31:14;;;;;;;7.20;1.83;;;;;;;24.53;42.31;101464.47;4901312;29;20500;-94
2022/10/16 10:33:58;;;;;;;3.33;1.58;;;;;;;22.84;45.23;101459.03;4917973;29;20044;-95
2022/10/16 10:36:36;;;;;;;5.85;1.45;;;;;;;23.26;46.09;101464.59;4901120;29;20548;-96
2022/10/16 10:39:16;;;;;;;7.40;1.50;;;;;;;26.11;41.44;101474.22;4918410;29;20503;-94
2022/10/16 10:42:00;;;;;;;9.43;2.13;;;;;;;25.47;41.50;101470.34;4901320;29;20484;-96
2022/10/16 10:45:01;;;;;;;6.82;1.50;;;;;;;26.13;41.70;101473.09;4901448;29;20115;-95
2022/10/16 10:47:41;;;;;;;12.55;2.40;;;;;;;25.61;41.47;101466.34;4900908;29;20085;-95
2022/10/16 10:50:22;;;;;;;9.00;1.92;;;;;;;27.48;35.38;101469.78;4901646;29;20468;-94
2022/10/16 10:53:11;;;;;;;6.35;1.70;;;;;;;26.51;38.11;101481.25;4901063;29;20025;-94
2022/10/16 10:55:51;;;;;;;6.55;1.50;;;;;;;27.19;38.29;101476.31;4900652;29;20028;-94
2022/10/16 10:58:43;;;;;;;5.28;1.50;;;;;;;26.59;38.85;101473.25;4918049;29;20024;-96
2022/10/16 11:01:14;;;;;;;7.97;1.95;;;;;;;25.00;41.01;101483.66;4885711;29;20055;-95
2022/10/16 11:03:57;;;;;;;10.02;2.08;;;;;;;25.10;41.94;101473.72;4900580;29;20036;-95
2022/10/16 11:06:26;;;;;;;;;;;;;;;26.08;42.47;101490.81;4900961;29;20036;-95
2022/10/16 11:09:11;;;;;;;9.18;1.95;;;;;;;28.09;37.06;101474.34;4900446;29;19922;-96
2022/10/16 11:12:17;;;;;;;7.10;1.85;;;;;;;29.48;34.64;101479.31;4885619;29;20039;-95
2022/10/16 11:15:04;;;;;;;5.20;1.52;;;;;;;28.93;32.30;101487.19;4840903;29;20509;-95
2022/10/16 11:17:41;;;;;;;9.13;2.08;;;;;;;28.37;33.58;101470.47;4898436;29;20127;-95
2022/10/16 11:20:27;;;;;;;4.90;1.58;;;;;;;28.43;33.73;101483.41;4900708;29;20122;-94
2022/10/16 11:22:59;;;;;;;9.02;2.05;;;;;;;28.48;32.80;101469.31;4917286;29;20024;-96
2022/10/16 11:25:31;;;;;;;5.43;1.80;;;;;;;28.54;32.70;101473.25;4900266;29;20091;-95
2022/10/16 11:28:14;;;;;;;8.85;2.35;;;;;;;26.78;34.39;101470.41;4900749;29;20032;-96
2022/10/16 11:30:50;;;;;;;7.00;1.85;;;;;;;24.94;37.38;101468.81;4917022;29;20059;-95
2022/10/16 11:33:18;;;;;;;6.72;1.98;;;;;;;23.74;40.58;101487.63;4901278;29;20024;-95
2022/10/16 11:36:00;;;;;;;8.45;2.03;;;;;;;23.14;42.80;101476.41;4900191;29;20161;-96
2022/10/16 11:38:30;;;;;;;;;;;;;;;23.77;43.57;101487.31;4917547;29;20408;-94